sensor_id;sensor_type;location;lat;lon;timestamp;pressure;altitude;pressure_sealevel;temperature;humidity
57024;BME280;42916;54.346;18.562;2023-11-21T00:02:02;100008.17;;;-0.97;100.00
57024;BME280;42916;54.346;18.562;2023-11-21T00:04:30;100010.64;;;-1.01;100.00
57024;BME280;42916;54.346;18.562;2023-11-21T00:06:57;100014.93;;;-1.04;100.00
57024;BME280;42916;54.346;18.562;2023-11-21T00:09:24;100019.98;;;-1.07;100.00
57024;BME280;42916;54.346;18.562;2023-11-21T00:11:50;100021.83;;;-1.10;100.00
57024;BME280;42916;54.346;18.562;2023-11-21T00:14:17;100026.98;;;-1.14;100.00
57024;BME280;42916;54.346;18.562;2023-11-21T00:16:44;100028.67;;;-1.16;100.00
57024;BME280;42916;54.346;18.562;2023-11-21T00:19:11;100029.80;;;-1.19;100.00
57024;BME280;42916;54.346;18.562;2023-11-21T00:21:38;100028.23;;;-1.21;100.00
57024;BME280;42916;54.346;18.562;2023-11-21T00:24:05;100022.19;;;-1.23;100.00
57024;BME280;42916;54.346;18.562;2023-11-21T00:26:32;100028.92;;;-1.22;100.00
57024;BME280;42916;54.346;18.562;2023-11-21T00:29:03;100030.62;;;-1.22;100.00
57024;BME280;42916;54.346;18.562;2023-11-21T00:31:30;100033.97;;;-1.23;100.00
57024;BME280;42916;54.346;18.562;2023-11-21T00:33:57;100038.56;;;-1.24;100.00
57024;BME280;42916;54.346;18.562;2023-11-21T00:36:24;100045.23;;;-1.26;100.00
57024;BME280;42916;54.346;18.562;2023-11-21T00:38:52;100047.58;;;-1.28;100.00
57024;BME280;42916;54.346;18.562;2023-11-21T00:41:19;100049.93;;;-1.31;100.00
57024;BME280;42916;54.346;18.562;2023-11-21T00:43:45;100049.63;;;-1.35;100.00
57024;BME280;42916;54.346;18.562;2023-11-21T00:46:12;100053.11;;;-1.38;100.00
57024;BME280;42916;54.346;18.562;2023-11-21T00:48:40;100056.98;;;-1.42;100.00
57024;BME280;42916;54.346;18.562;2023-11-21T00:51:06;100059.14;;;-1.45;100.00
57024;BME280;42916;54.346;18.562;2023-11-21T00:53:33;100057.83;;;-1.48;100.00
57024;BME280;42916;54.346;18.562;2023-11-21T00:56:00;100048.90;;;-1.51;100.00
57024;BME280;42916;54.346;18.562;2023-11-21T00:58:26;100048.41;;;-1.49;99.99
57024;BME280;42916;54.346;18.562;2023-11-21T01:00:53;100047.02;;;-1.47;99.84
57024;BME280;42916;54.346;18.562;2023-11-21T01:03:20;100047.78;;;-1.44;99.60
57024;BME280;42916;54.346;18.562;2023-11-21T01:05:48;100050.13;;;-1.42;99.74
57024;BME280;42916;54.346;18.562;2023-11-21T01:08:16;100055.93;;;-1.40;99.51
57024;BME280;42916;54.346;18.562;2023-11-21T01:10:43;100053.36;;;-1.38;99.38
57024;BME280;42916;54.346;18.562;2023-11-21T01:13:10;100057.36;;;-1.34;99.42
57024;BME280;42916;54.346;18.562;2023-11-21T01:15:37;100061.69;;;-1.30;99.36
57024;BME280;42916;54.346;18.562;2023-11-21T01:18:04;100062.41;;;-1.27;99.24
57024;BME280;42916;54.346;18.562;2023-11-21T01:20:31;100067.05;;;-1.24;98.99
57024;BME280;42916;54.346;18.562;2023-11-21T01:22:57;100067.41;;;-1.21;98.86
57024;BME280;42916;54.346;18.562;2023-11-21T01:25:24;100069.48;;;-1.18;98.66
57024;BME280;42916;54.346;18.562;2023-11-21T01:27:51;100068.70;;;-1.15;98.65
57024;BME280;42916;54.346;18.562;2023-11-21T01:30:18;100070.13;;;-1.11;98.49
57024;BME280;42916;54.346;18.562;2023-11-21T01:32:45;100076.76;;;-1.09;98.28
57024;BME280;42916;54.346;18.562;2023-11-21T01:35:11;100083.09;;;-1.05;98.25
57024;BME280;42916;54.346;18.562;2023-11-21T01:37:38;100081.76;;;-1.03;98.14
57024;BME280;42916;54.346;18.562;2023-11-21T01:40:06;100086.84;;;-1.01;98.02
57024;BME280;42916;54.346;18.562;2023-11-21T01:42:36;100086.57;;;-0.99;97.81
57024;BME280;42916;54.346;18.562;2023-11-21T01:45:03;100085.38;;;-0.96;97.65
57024;BME280;42916;54.346;18.562;2023-11-21T01:47:32;100086.13;;;-0.91;97.74
57024;BME280;42916;54.346;18.562;2023-11-21T01:50:00;100090.77;;;-0.85;97.45
57024;BME280;42916;54.346;18.562;2023-11-21T01:52:28;100094.67;;;-0.81;97.26
57024;BME280;42916;54.346;18.562;2023-11-21T01:54:57;100092.61;;;-0.77;97.15
57024;BME280;42916;54.346;18.562;2023-11-21T01:57:25;100097.13;;;-0.74;96.88
57024;BME280;42916;54.346;18.562;2023-11-21T01:59:54;100095.09;;;-0.69;97.04
57024;BME280;42916;54.346;18.562;2023-11-21T02:02:20;100100.75;;;-0.66;96.98
57024;BME280;42916;54.346;18.562;2023-11-21T02:04:47;100098.63;;;-0.65;96.58
57024;BME280;42916;54.346;18.562;2023-11-21T02:07:14;100099.49;;;-0.65;96.41
57024;BME280;42916;54.346;18.562;2023-11-21T02:09:41;100102.45;;;-0.64;96.40
57024;BME280;42916;54.346;18.562;2023-11-21T02:12:10;100103.41;;;-0.63;96.11
57024;BME280;42916;54.346;18.562;2023-11-21T02:14:36;100104.59;;;-0.64;96.11
57024;BME280;42916;54.346;18.562;2023-11-21T02:17:03;100110.07;;;-0.64;95.98
57024;BME280;42916;54.346;18.562;2023-11-21T02:19:31;100111.02;;;-0.66;95.62
57024;BME280;42916;54.346;18.562;2023-11-21T02:21:59;100112.08;;;-0.67;95.49
57024;BME280;42916;54.346;18.562;2023-11-21T02:24:32;100116.59;;;-0.69;95.05
57024;BME280;42916;54.346;18.562;2023-11-21T02:26:59;100123.14;;;-0.70;95.01
57024;BME280;42916;54.346;18.562;2023-11-21T02:29:26;100121.41;;;-0.70;94.96
57024;BME280;42916;54.346;18.562;2023-11-21T02:31:55;100122.73;;;-0.71;95.07
57024;BME280;42916;54.346;18.562;2023-11-21T02:34:22;100125.36;;;-0.71;94.96
57024;BME280;42916;54.346;18.562;2023-11-21T02:36:51;100129.66;;;-0.71;94.64
57024;BME280;42916;54.346;18.562;2023-11-21T02:39:18;100125.58;;;-0.74;94.36
57024;BME280;42916;54.346;18.562;2023-11-21T02:41:44;100129.72;;;-0.74;94.31
57024;BME280;42916;54.346;18.562;2023-11-21T02:44:11;100128.39;;;-0.76;94.24
57024;BME280;42916;54.346;18.562;2023-11-21T02:46:38;100130.29;;;-0.74;93.92
57024;BME280;42916;54.346;18.562;2023-11-21T02:49:06;100125.92;;;-0.72;93.74
57024;BME280;42916;54.346;18.562;2023-11-21T02:51:33;100124.71;;;-0.70;93.48
57024;BME280;42916;54.346;18.562;2023-11-21T02:54:00;100129.81;;;-0.69;93.61
57024;BME280;42916;54.346;18.562;2023-11-21T02:56:29;100133.67;;;-0.69;93.49
57024;BME280;42916;54.346;18.562;2023-11-21T02:58:56;100138.56;;;-0.69;93.56
57024;BME280;42916;54.346;18.562;2023-11-21T03:01:23;100134.63;;;-0.69;93.31
57024;BME280;42916;54.346;18.562;2023-11-21T03:03:53;100135.78;;;-0.69;93.49
57024;BME280;42916;54.346;18.562;2023-11-21T03:06:21;100137.44;;;-0.70;92.92
57024;BME280;42916;54.346;18.562;2023-11-21T03:08:49;100143.00;;;-0.72;93.01
57024;BME280;42916;54.346;18.562;2023-11-21T03:11:16;100142.98;;;-0.72;93.10
57024;BME280;42916;54.346;18.562;2023-11-21T03:13:43;100151.34;;;-0.70;93.34
57024;BME280;42916;54.346;18.562;2023-11-21T03:16:10;100154.92;;;-0.69;93.43
57024;BME280;42916;54.346;18.562;2023-11-21T03:18:38;100158.02;;;-0.68;93.11
57024;BME280;42916;54.346;18.562;2023-11-21T03:21:06;100161.03;;;-0.67;93.08
57024;BME280;42916;54.346;18.562;2023-11-21T03:23:35;100159.75;;;-0.67;92.85
57024;BME280;42916;54.346;18.562;2023-11-21T03:26:04;100163.63;;;-0.66;92.58
57024;BME280;42916;54.346;18.562;2023-11-21T03:28:30;100165.82;;;-0.65;92.57
57024;BME280;42916;54.346;18.562;2023-11-21T03:30:57;100165.52;;;-0.63;92.30
57024;BME280;42916;54.346;18.562;2023-11-21T03:33:24;100168.35;;;-0.63;92.15
57024;BME280;42916;54.346;18.562;2023-11-21T03:35:51;100167.17;;;-0.62;92.25
57024;BME280;42916;54.346;18.562;2023-11-21T03:38:19;100165.58;;;-0.60;92.28
57024;BME280;42916;54.346;18.562;2023-11-21T03:40:46;100152.02;;;-0.60;92.32
57024;BME280;42916;54.346;18.562;2023-11-21T03:43:14;100157.77;;;-0.61;92.09
57024;BME280;42916;54.346;18.562;2023-11-21T03:45:41;100155.22;;;-0.62;91.97
57024;BME280;42916;54.346;18.562;2023-11-21T03:48:08;100153.10;;;-0.63;91.78
57024;BME280;42916;54.346;18.562;2023-11-21T03:50:37;100156.83;;;-0.65;91.86
57024;BME280;42916;54.346;18.562;2023-11-21T03:53:05;100153.34;;;-0.66;91.70
57024;BME280;42916;54.346;18.562;2023-11-21T03:55:32;100155.34;;;-0.68;91.57
57024;BME280;42916;54.346;18.562;2023-11-21T03:57:59;100161.98;;;-0.67;91.63
57024;BME280;42916;54.346;18.562;2023-11-21T04:00:25;100166.46;;;-0.66;91.55
57024;BME280;42916;54.346;18.562;2023-11-21T04:02:55;100170.11;;;-0.67;91.53
57024;BME280;42916;54.346;18.562;2023-11-21T04:05:22;100171.81;;;-0.66;91.74
57024;BME280;42916;54.346;18.562;2023-11-21T04:07:49;100173.33;;;-0.65;91.99
57024;BME280;42916;54.346;18.562;2023-11-21T04:10:17;100170.29;;;-0.67;91.88
57024;BME280;42916;54.346;18.562;2023-11-21T04:12:45;100173.06;;;-0.68;91.92
57024;BME280;42916;54.346;18.562;2023-11-21T04:15:11;100176.17;;;-0.69;91.88
57024;BME280;42916;54.346;18.562;2023-11-21T04:17:41;100179.88;;;-0.72;91.85
57024;BME280;42916;54.346;18.562;2023-11-21T04:20:09;100183.80;;;-0.74;91.86
57024;BME280;42916;54.346;18.562;2023-11-21T04:22:37;100185.07;;;-0.74;91.92
57024;BME280;42916;54.346;18.562;2023-11-21T04:25:10;100190.05;;;-0.76;91.85
57024;BME280;42916;54.346;18.562;2023-11-21T04:27:41;100192.77;;;-0.76;92.01
57024;BME280;42916;54.346;18.562;2023-11-21T04:30:11;100193.36;;;-0.78;91.98
57024;BME280;42916;54.346;18.562;2023-11-21T04:32:38;100192.70;;;-0.77;92.10
57024;BME280;42916;54.346;18.562;2023-11-21T04:35:06;100202.11;;;-0.78;91.87
57024;BME280;42916;54.346;18.562;2023-11-21T04:37:32;100197.55;;;-0.79;91.88
57024;BME280;42916;54.346;18.562;2023-11-21T04:39:59;100202.73;;;-0.79;91.84
57024;BME280;42916;54.346;18.562;2023-11-21T04:42:26;100209.77;;;-0.80;91.70
57024;BME280;42916;54.346;18.562;2023-11-21T04:44:52;100208.71;;;-0.80;91.87
57024;BME280;42916;54.346;18.562;2023-11-21T04:47:19;100205.70;;;-0.80;91.81
57024;BME280;42916;54.346;18.562;2023-11-21T04:49:46;100213.16;;;-0.82;91.68
57024;BME280;42916;54.346;18.562;2023-11-21T04:52:15;100216.21;;;-0.79;91.79
57024;BME280;42916;54.346;18.562;2023-11-21T04:54:42;100221.02;;;-0.77;91.70
57024;BME280;42916;54.346;18.562;2023-11-21T04:57:09;100225.50;;;-0.74;91.75
57024;BME280;42916;54.346;18.562;2023-11-21T04:59:36;100224.96;;;-0.71;91.89
57024;BME280;42916;54.346;18.562;2023-11-21T05:02:02;100230.29;;;-0.67;91.90
57024;BME280;42916;54.346;18.562;2023-11-21T05:04:29;100233.08;;;-0.63;92.05
57024;BME280;42916;54.346;18.562;2023-11-21T05:06:55;100238.88;;;-0.64;91.79
57024;BME280;42916;54.346;18.562;2023-11-21T05:09:23;100236.28;;;-0.63;91.94
57024;BME280;42916;54.346;18.562;2023-11-21T05:11:49;100245.70;;;-0.63;91.91
57024;BME280;42916;54.346;18.562;2023-11-21T05:14:16;100247.52;;;-0.63;91.93
57024;BME280;42916;54.346;18.562;2023-11-21T05:16:44;100248.55;;;-0.65;91.98
57024;BME280;42916;54.346;18.562;2023-11-21T05:19:11;100249.12;;;-0.66;91.98
57024;BME280;42916;54.346;18.562;2023-11-21T05:21:39;100254.39;;;-0.68;91.88
57024;BME280;42916;54.346;18.562;2023-11-21T05:24:06;100258.52;;;-0.70;91.95
57024;BME280;42916;54.346;18.562;2023-11-21T05:26:33;100260.71;;;-0.72;92.04
57024;BME280;42916;54.346;18.562;2023-11-21T05:28:59;100267.00;;;-0.74;92.05
57024;BME280;42916;54.346;18.562;2023-11-21T05:31:26;100276.78;;;-0.78;92.18
57024;BME280;42916;54.346;18.562;2023-11-21T05:33:53;100282.99;;;-0.80;92.34
57024;BME280;42916;54.346;18.562;2023-11-21T05:36:19;100291.75;;;-0.82;92.61
57024;BME280;42916;54.346;18.562;2023-11-21T05:38:46;100292.65;;;-0.82;92.79
57024;BME280;42916;54.346;18.562;2023-11-21T05:41:13;100298.69;;;-0.81;92.88
57024;BME280;42916;54.346;18.562;2023-11-21T05:43:39;100300.36;;;-0.78;92.99
57024;BME280;42916;54.346;18.562;2023-11-21T05:46:06;100303.11;;;-0.76;93.05
57024;BME280;42916;54.346;18.562;2023-11-21T05:48:33;100306.87;;;-0.71;93.05
57024;BME280;42916;54.346;18.562;2023-11-21T05:51:00;100309.02;;;-0.65;92.82
57024;BME280;42916;54.346;18.562;2023-11-21T05:53:27;100309.81;;;-0.60;92.73
57024;BME280;42916;54.346;18.562;2023-11-21T05:55:54;100318.06;;;-0.56;92.75
57024;BME280;42916;54.346;18.562;2023-11-21T05:58:21;100321.86;;;-0.52;92.78
57024;BME280;42916;54.346;18.562;2023-11-21T06:00:47;100327.58;;;-0.48;92.94
57024;BME280;42916;54.346;18.562;2023-11-21T06:03:14;100333.30;;;-0.45;92.90
57024;BME280;42916;54.346;18.562;2023-11-21T06:05:40;100338.20;;;-0.41;92.94
57024;BME280;42916;54.346;18.562;2023-11-21T06:08:07;100334.69;;;-0.39;92.86
57024;BME280;42916;54.346;18.562;2023-11-21T06:10:36;100342.98;;;-0.38;92.84
57024;BME280;42916;54.346;18.562;2023-11-21T06:13:02;100341.54;;;-0.38;92.59
57024;BME280;42916;54.346;18.562;2023-11-21T06:15:30;100345.45;;;-0.38;92.69
57024;BME280;42916;54.346;18.562;2023-11-21T06:17:56;100355.58;;;-0.39;92.50
57024;BME280;42916;54.346;18.562;2023-11-21T06:20:23;100363.42;;;-0.41;92.49
57024;BME280;42916;54.346;18.562;2023-11-21T06:22:50;100368.17;;;-0.42;92.55
57024;BME280;42916;54.346;18.562;2023-11-21T06:25:17;100372.33;;;-0.41;92.50
57024;BME280;42916;54.346;18.562;2023-11-21T06:27:44;100373.15;;;-0.42;92.44
57024;BME280;42916;54.346;18.562;2023-11-21T06:30:12;100377.00;;;-0.43;92.28
57024;BME280;42916;54.346;18.562;2023-11-21T06:32:40;100382.52;;;-0.44;92.28
57024;BME280;42916;54.346;18.562;2023-11-21T06:35:06;100382.38;;;-0.46;92.27
57024;BME280;42916;54.346;18.562;2023-11-21T06:37:34;100389.47;;;-0.44;92.24
57024;BME280;42916;54.346;18.562;2023-11-21T06:40:01;100395.77;;;-0.41;92.22
57024;BME280;42916;54.346;18.562;2023-11-21T06:42:30;100404.05;;;-0.39;92.05
57024;BME280;42916;54.346;18.562;2023-11-21T06:44:56;100409.17;;;-0.39;92.18
57024;BME280;42916;54.346;18.562;2023-11-21T06:47:24;100414.95;;;-0.40;92.24
57024;BME280;42916;54.346;18.562;2023-11-21T06:49:54;100415.48;;;-0.40;92.20
57024;BME280;42916;54.346;18.562;2023-11-21T06:52:20;100413.41;;;-0.40;92.14
57024;BME280;42916;54.346;18.562;2023-11-21T06:54:47;100421.60;;;-0.40;92.22
57024;BME280;42916;54.346;18.562;2023-11-21T06:57:15;100434.88;;;-0.41;92.10
57024;BME280;42916;54.346;18.562;2023-11-21T06:59:42;100439.67;;;-0.42;92.02
57024;BME280;42916;54.346;18.562;2023-11-21T07:02:09;100441.21;;;-0.43;91.96
57024;BME280;42916;54.346;18.562;2023-11-21T07:04:36;100445.48;;;-0.43;92.09
57024;BME280;42916;54.346;18.562;2023-11-21T07:07:02;100446.22;;;-0.42;91.96
57024;BME280;42916;54.346;18.562;2023-11-21T07:09:29;100452.54;;;-0.40;92.00
57024;BME280;42916;54.346;18.562;2023-11-21T07:11:57;100453.23;;;-0.34;91.83
57024;BME280;42916;54.346;18.562;2023-11-21T07:14:23;100456.52;;;-0.29;91.65
57024;BME280;42916;54.346;18.562;2023-11-21T07:16:50;100459.66;;;-0.23;91.85
57024;BME280;42916;54.346;18.562;2023-11-21T07:19:19;100460.69;;;-0.16;91.68
57024;BME280;42916;54.346;18.562;2023-11-21T07:21:46;100461.67;;;-0.11;91.92
57024;BME280;42916;54.346;18.562;2023-11-21T07:24:12;100462.27;;;-0.01;92.03
57024;BME280;42916;54.346;18.562;2023-11-21T07:26:39;100465.45;;;0.14;92.21
57024;BME280;42916;54.346;18.562;2023-11-21T07:29:06;100469.58;;;0.20;91.97
57024;BME280;42916;54.346;18.562;2023-11-21T07:31:32;100477.65;;;0.25;91.80
57024;BME280;42916;54.346;18.562;2023-11-21T07:34:02;100467.10;;;0.28;91.67
57024;BME280;42916;54.346;18.562;2023-11-21T07:36:28;100471.92;;;0.29;91.31
57024;BME280;42916;54.346;18.562;2023-11-21T07:38:55;100473.89;;;0.28;91.07
57024;BME280;42916;54.346;18.562;2023-11-21T07:41:22;100478.25;;;0.26;90.91
57024;BME280;42916;54.346;18.562;2023-11-21T07:43:48;100476.13;;;0.29;90.62
57024;BME280;42916;54.346;18.562;2023-11-21T07:46:16;100475.80;;;0.33;90.80
57024;BME280;42916;54.346;18.562;2023-11-21T07:48:42;100475.89;;;0.37;91.03
57024;BME280;42916;54.346;18.562;2023-11-21T07:51:10;100468.11;;;0.42;90.96
57024;BME280;42916;54.346;18.562;2023-11-21T07:53:36;100469.65;;;0.47;90.95
57024;BME280;42916;54.346;18.562;2023-11-21T07:56:03;100473.95;;;0.53;90.88
57024;BME280;42916;54.346;18.562;2023-11-21T07:58:30;100479.89;;;0.55;90.36
57024;BME280;42916;54.346;18.562;2023-11-21T08:01:00;100475.39;;;0.53;89.65
57024;BME280;42916;54.346;18.562;2023-11-21T08:03:27;100477.04;;;0.52;89.54
57024;BME280;42916;54.346;18.562;2023-11-21T08:05:54;100478.21;;;0.51;89.62
57024;BME280;42916;54.346;18.562;2023-11-21T08:08:21;100478.28;;;0.52;89.55
57024;BME280;42916;54.346;18.562;2023-11-21T08:10:47;100480.08;;;0.52;89.23
57024;BME280;42916;54.346;18.562;2023-11-21T08:13:23;100481.34;;;0.54;89.40
57024;BME280;42916;54.346;18.562;2023-11-21T08:15:49;100483.73;;;0.57;89.18
57024;BME280;42916;54.346;18.562;2023-11-21T08:18:16;100488.48;;;0.65;89.30
57024;BME280;42916;54.346;18.562;2023-11-21T08:20:44;100491.56;;;0.69;89.14
57024;BME280;42916;54.346;18.562;2023-11-21T08:23:16;100492.54;;;0.74;89.04
57024;BME280;42916;54.346;18.562;2023-11-21T08:25:43;100493.42;;;0.81;89.16
57024;BME280;42916;54.346;18.562;2023-11-21T08:28:10;100495.48;;;0.84;88.77
57024;BME280;42916;54.346;18.562;2023-11-21T08:30:37;100495.69;;;0.84;88.37
57024;BME280;42916;54.346;18.562;2023-11-21T08:33:03;100506.23;;;0.87;88.47
57024;BME280;42916;54.346;18.562;2023-11-21T08:35:31;100504.06;;;0.88;88.26
57024;BME280;42916;54.346;18.562;2023-11-21T08:37:57;100510.17;;;0.90;88.19
57024;BME280;42916;54.346;18.562;2023-11-21T08:40:24;100509.99;;;0.92;88.45
57024;BME280;42916;54.346;18.562;2023-11-21T08:42:51;100512.40;;;0.96;88.51
57024;BME280;42916;54.346;18.562;2023-11-21T08:45:19;100514.65;;;1.04;88.16
57024;BME280;42916;54.346;18.562;2023-11-21T08:47:45;100523.69;;;1.16;88.01
57024;BME280;42916;54.346;18.562;2023-11-21T08:50:12;100526.27;;;1.30;87.73
57024;BME280;42916;54.346;18.562;2023-11-21T08:52:39;100527.93;;;1.45;88.06
57024;BME280;42916;54.346;18.562;2023-11-21T08:55:07;100523.98;;;1.51;87.90
57024;BME280;42916;54.346;18.562;2023-11-21T08:57:39;100528.46;;;1.49;87.15
57024;BME280;42916;54.346;18.562;2023-11-21T09:00:07;100530.81;;;1.49;87.48
57024;BME280;42916;54.346;18.562;2023-11-21T09:02:40;100526.45;;;1.51;87.52
57024;BME280;42916;54.346;18.562;2023-11-21T09:05:10;100531.60;;;1.55;87.03
57024;BME280;42916;54.346;18.562;2023-11-21T09:07:38;100530.65;;;1.54;86.46
57024;BME280;42916;54.346;18.562;2023-11-21T09:10:05;100540.20;;;1.52;86.28
57024;BME280;42916;54.346;18.562;2023-11-21T09:12:34;100546.40;;;1.45;85.58
57024;BME280;42916;54.346;18.562;2023-11-21T09:15:04;100543.95;;;1.43;85.71
57024;BME280;42916;54.346;18.562;2023-11-21T09:17:32;100540.46;;;1.42;85.67
57024;BME280;42916;54.346;18.562;2023-11-21T09:19:59;100538.60;;;1.44;85.59
57024;BME280;42916;54.346;18.562;2023-11-21T09:22:25;100539.64;;;1.53;85.82
57024;BME280;42916;54.346;18.562;2023-11-21T09:24:53;100548.39;;;1.59;85.44
57024;BME280;42916;54.346;18.562;2023-11-21T09:27:19;100547.55;;;1.63;85.01
57024;BME280;42916;54.346;18.562;2023-11-21T09:29:48;100548.10;;;1.68;84.82
57024;BME280;42916;54.346;18.562;2023-11-21T09:32:15;100550.70;;;1.79;84.75
57024;BME280;42916;54.346;18.562;2023-11-21T09:34:42;100546.48;;;1.88;83.96
57024;BME280;42916;54.346;18.562;2023-11-21T09:37:09;100542.16;;;1.94;83.55
57024;BME280;42916;54.346;18.562;2023-11-21T09:39:36;100543.69;;;2.00;82.71
57024;BME280;42916;54.346;18.562;2023-11-21T09:44:58;100551.30;;;2.10;80.52
57024;BME280;42916;54.346;18.562;2023-11-21T09:47:28;100550.02;;;2.17;81.01
57024;BME280;42916;54.346;18.562;2023-11-21T09:49:54;100546.75;;;2.24;80.92
57024;BME280;42916;54.346;18.562;2023-11-21T09:52:26;100546.11;;;2.29;80.93
57024;BME280;42916;54.346;18.562;2023-11-21T09:54:53;100544.59;;;2.32;79.70
57024;BME280;42916;54.346;18.562;2023-11-21T09:57:20;100548.16;;;2.33;79.44
57024;BME280;42916;54.346;18.562;2023-11-21T09:59:52;100547.60;;;2.29;78.77
57024;BME280;42916;54.346;18.562;2023-11-21T10:02:26;100555.45;;;2.23;77.36
57024;BME280;42916;54.346;18.562;2023-11-21T10:04:55;100550.91;;;2.17;77.03
57024;BME280;42916;54.346;18.562;2023-11-21T10:07:23;100551.64;;;2.10;77.35
57024;BME280;42916;54.346;18.562;2023-11-21T10:09:50;100556.36;;;2.06;76.97
57024;BME280;42916;54.346;18.562;2023-11-21T10:12:17;100556.80;;;2.04;77.26
57024;BME280;42916;54.346;18.562;2023-11-21T10:14:46;100556.91;;;2.06;77.64
57024;BME280;42916;54.346;18.562;2023-11-21T10:17:15;100560.43;;;2.04;77.37
57024;BME280;42916;54.346;18.562;2023-11-21T10:19:47;100560.86;;;2.00;77.08
57024;BME280;42916;54.346;18.562;2023-11-21T10:22:14;100562.38;;;1.99;77.22
57024;BME280;42916;54.346;18.562;2023-11-21T10:24:41;100562.77;;;1.97;76.88
57024;BME280;42916;54.346;18.562;2023-11-21T10:27:09;100560.60;;;1.94;76.62
57024;BME280;42916;54.346;18.562;2023-11-21T10:29:36;100569.45;;;1.91;76.68
57024;BME280;42916;54.346;18.562;2023-11-21T10:32:03;100570.50;;;1.86;76.60
57024;BME280;42916;54.346;18.562;2023-11-21T10:34:29;100575.02;;;1.85;76.83
57024;BME280;42916;54.346;18.562;2023-11-21T10:36:56;100588.73;;;1.85;76.80
57024;BME280;42916;54.346;18.562;2023-11-21T10:39:24;100591.30;;;1.83;77.10
57024;BME280;42916;54.346;18.562;2023-11-21T10:41:54;100585.65;;;1.83;76.57
57024;BME280;42916;54.346;18.562;2023-11-21T10:44:21;100586.92;;;1.81;76.44
57024;BME280;42916;54.346;18.562;2023-11-21T10:46:50;100586.02;;;1.81;76.10
57024;BME280;42916;54.346;18.562;2023-11-21T10:49:18;100593.13;;;1.80;76.06
57024;BME280;42916;54.346;18.562;2023-11-21T10:51:45;100592.14;;;1.83;75.96
57024;BME280;42916;54.346;18.562;2023-11-21T10:54:11;100591.73;;;1.85;75.65
57024;BME280;42916;54.346;18.562;2023-11-21T10:56:39;100590.69;;;1.84;75.25
57024;BME280;42916;54.346;18.562;2023-11-21T10:59:09;100590.60;;;1.79;74.37
57024;BME280;42916;54.346;18.562;2023-11-21T11:01:37;100595.12;;;1.76;74.76
57024;BME280;42916;54.346;18.562;2023-11-21T11:04:04;100593.73;;;1.77;75.12
57024;BME280;42916;54.346;18.562;2023-11-21T11:06:32;100592.60;;;1.80;75.23
57024;BME280;42916;54.346;18.562;2023-11-21T11:08:59;100601.09;;;1.79;75.30
57024;BME280;42916;54.346;18.562;2023-11-21T11:11:30;100606.70;;;1.79;75.14
57024;BME280;42916;54.346;18.562;2023-11-21T11:13:56;100602.90;;;1.78;75.08
57024;BME280;42916;54.346;18.562;2023-11-21T11:16:26;100607.77;;;1.74;74.20
57024;BME280;42916;54.346;18.562;2023-11-21T11:18:54;100613.06;;;1.71;73.57
57024;BME280;42916;54.346;18.562;2023-11-21T11:21:31;100609.73;;;1.67;73.90
57024;BME280;42916;54.346;18.562;2023-11-21T11:30:02;100619.91;;;1.62;73.11
57024;BME280;42916;54.346;18.562;2023-11-21T11:37:43;100622.96;;;1.62;73.84
57024;BME280;42916;54.346;18.562;2023-11-21T11:40:12;100621.93;;;1.63;73.67
57024;BME280;42916;54.346;18.562;2023-11-21T11:42:39;100625.41;;;1.63;73.52
57024;BME280;42916;54.346;18.562;2023-11-21T11:45:18;100623.45;;;1.62;73.08
57024;BME280;42916;54.346;18.562;2023-11-21T11:47:48;100624.77;;;1.60;73.52
57024;BME280;42916;54.346;18.562;2023-11-21T11:50:15;100625.24;;;1.63;73.37
57024;BME280;42916;54.346;18.562;2023-11-21T11:52:45;100625.30;;;1.64;73.55
57024;BME280;42916;54.346;18.562;2023-11-21T11:55:12;100630.13;;;1.64;72.99
57024;BME280;42916;54.346;18.562;2023-11-21T11:57:49;100632.02;;;1.64;73.23
57024;BME280;42916;54.346;18.562;2023-11-21T12:00:19;100637.23;;;1.66;73.59
57024;BME280;42916;54.346;18.562;2023-11-21T12:02:47;100629.47;;;1.68;73.34
57024;BME280;42916;54.346;18.562;2023-11-21T12:05:18;100632.44;;;1.69;73.26
57024;BME280;42916;54.346;18.562;2023-11-21T12:07:46;100639.64;;;1.71;73.46
57024;BME280;42916;54.346;18.562;2023-11-21T12:10:13;100640.41;;;1.71;73.15
57024;BME280;42916;54.346;18.562;2023-11-21T12:12:42;100644.38;;;1.74;73.41
57024;BME280;42916;54.346;18.562;2023-11-21T12:15:09;100639.84;;;1.74;73.18
57024;BME280;42916;54.346;18.562;2023-11-21T12:17:35;100640.02;;;1.77;73.41
57024;BME280;42916;54.346;18.562;2023-11-21T12:20:02;100639.59;;;1.83;73.59
57024;BME280;42916;54.346;18.562;2023-11-21T12:22:30;100641.36;;;1.92;73.37
57024;BME280;42916;54.346;18.562;2023-11-21T12:24:57;100640.58;;;1.98;73.38
57024;BME280;42916;54.346;18.562;2023-11-21T12:27:24;100640.33;;;2.04;72.64
57024;BME280;42916;54.346;18.562;2023-11-21T12:29:51;100643.61;;;2.03;72.38
57024;BME280;42916;54.346;18.562;2023-11-21T12:32:17;100651.14;;;1.96;72.36
57024;BME280;42916;54.346;18.562;2023-11-21T12:34:45;100654.50;;;1.88;72.22
57024;BME280;42916;54.346;18.562;2023-11-21T12:37:11;100656.71;;;1.82;72.31
57024;BME280;42916;54.346;18.562;2023-11-21T12:39:38;100657.61;;;1.81;72.26
57024;BME280;42916;54.346;18.562;2023-11-21T12:42:04;100654.58;;;1.98;72.86
57024;BME280;42916;54.346;18.562;2023-11-21T12:44:32;100654.73;;;2.20;73.31
57024;BME280;42916;54.346;18.562;2023-11-21T12:46:59;100659.71;;;2.27;73.00
57024;BME280;42916;54.346;18.562;2023-11-21T12:49:27;100663.64;;;2.22;71.83
57024;BME280;42916;54.346;18.562;2023-11-21T12:51:54;100669.52;;;2.10;71.83
57024;BME280;42916;54.346;18.562;2023-11-21T12:54:21;100666.95;;;2.03;72.12
57024;BME280;42916;54.346;18.562;2023-11-21T12:56:47;100669.27;;;1.96;72.05
57024;BME280;42916;54.346;18.562;2023-11-21T12:59:15;100672.34;;;1.84;71.61